Time;durP1;ratioP1;P1;durP2;ratioP2;P2;SDS_P1;SDS_P2;PMS_P1;PMS_P2;Temp;Humidity;BMP_temperature;BMP_pressure;BME280_temperature;BME280_humidity;BME280_pressure;Samples;Min_cycle;Max_cycle;Signal;HPM_P1;HPM_P2
2022/04/16 00:00:14;;;;;;;41.17;4.97;;;;;;;9.68;100.00;98906.06;5002797;28;20116;-60
2022/04/16 00:02:39;;;;;;;58.80;5.78;;;;;;;10.09;100.00;98912.06;5004718;28;20030;-58
2022/04/16 00:05:05;;;;;;;75.90;6.35;;;;;;;10.18;100.00;98910.97;5002401;28;20036;-58
2022/04/16 00:07:31;;;;;;;77.97;6.45;;;;;;;10.83;100.00;98906.72;5003020;28;20079;-58
2022/04/16 00:09:57;;;;;;;77.50;6.57;;;;;;;9.99;100.00;98910.56;5002656;28;20455;-57
2022/04/16 00:12:22;;;;;;;51.33;5.50;;;;;;;9.75;100.00;98912.84;5004885;28;20079;-59
2022/04/16 00:14:48;;;;;;;88.68;6.68;;;;;;;11.00;100.00;98912.31;5001510;28;20140;-57
2022/04/16 00:17:14;;;;;;;55.80;5.53;;;;;;;9.71;100.00;98911.22;5003078;28;20030;-56
2022/04/16 00:19:41;;;;;;;65.97;5.90;;;;;;;9.78;100.00;98911.94;5001655;28;20955;-55
2022/04/16 00:22:10;;;;;;;81.45;6.97;;;;;;;9.32;100.00;98908.63;5001955;28;20033;-55
2022/04/16 00:24:36;;;;;;;63.65;5.95;;;;;;;9.77;100.00;98911.06;5003357;28;20029;-58
2022/04/16 00:27:01;;;;;;;61.35;5.93;;;;;;;9.55;100.00;98902.03;5003964;28;20041;-59
2022/04/16 00:29:27;;;;;;;64.72;6.22;;;;;;;9.40;100.00;98901.47;5003543;28;20036;-58
2022/04/16 00:31:52;;;;;;;70.03;6.28;;;;;;;9.75;100.00;98902.44;5000972;28;20038;-56
2022/04/16 00:34:18;;;;;;;79.28;7.15;;;;;;;9.74;100.00;98905.94;5001354;28;20029;-58
2022/04/16 00:36:44;;;;;;;59.33;5.78;;;;;;;9.88;100.00;98907.38;5001567;28;20049;-59
2022/04/16 00:39:10;;;;;;;64.72;5.55;;;;;;;10.62;100.00;98906.38;5002490;28;20022;-58
2022/04/16 00:41:36;;;;;;;58.55;5.70;;;;;;;10.35;100.00;98902.78;5001308;28;20366;-58
2022/04/16 00:44:01;;;;;;;63.88;6.00;;;;;;;10.15;100.00;98909.31;5003424;28;20120;-56
2022/04/16 00:46:27;;;;;;;64.90;6.10;;;;;;;10.61;100.00;98902.94;5001873;28;20036;-56
2022/04/16 00:48:52;;;;;;;57.78;5.97;;;;;;;10.69;100.00;98907.09;5002391;28;20106;-58
2022/04/16 00:51:18;;;;;;;64.32;6.10;;;;;;;10.50;100.00;98904.97;5001695;28;20575;-57
2022/04/16 00:53:43;;;;;;;55.50;5.72;;;;;;;10.26;100.00;98902.97;5001390;28;20041;-57
2022/04/16 00:56:12;;;;;;;51.30;5.30;;;;;;;9.98;100.00;98898.41;5003091;28;20033;-58
2022/04/16 00:58:40;;;;;;;72.10;6.65;;;;;;;10.36;100.00;98904.47;5000835;28;20033;-57
2022/04/16 01:01:06;;;;;;;58.28;6.13;;;;;;;10.39;100.00;98899.19;5001063;28;20042;-58
2022/04/16 01:03:32;;;;;;;75.78;6.78;;;;;;;10.29;100.00;98903.72;5000830;28;20041;-56
2022/04/16 01:05:58;;;;;;;59.33;5.70;;;;;;;10.45;100.00;98899.00;5002671;28;20042;-58
2022/04/16 01:08:23;;;;;;;59.40;5.75;;;;;;;10.35;100.00;98902.78;5002582;28;20531;-56
2022/04/16 01:10:49;;;;;;;60.47;5.97;;;;;;;10.66;100.00;98901.94;5000051;28;20574;-60
2022/04/16 01:13:15;;;;;;;53.45;5.60;;;;;;;10.19;100.00;98902.25;5003123;28;20036;-59
2022/04/16 01:15:41;;;;;;;53.00;5.25;;;;;;;10.55;100.00;98903.09;5001357;28;20125;-58
2022/04/16 01:18:07;;;;;;;63.35;6.07;;;;;;;10.57;100.00;98903.91;5000689;28;20040;-58
2022/04/16 01:20:35;;;;;;;56.83;5.25;;;;;;;10.66;100.00;98908.03;4998939;28;20044;-59
2022/04/16 01:23:01;;;;;;;55.25;5.43;;;;;;;10.57;100.00;98909.13;5002823;28;20130;-60
2022/04/16 01:25:27;;;;;;;61.33;5.63;;;;;;;10.75;100.00;98906.91;5000334;28;20038;-58
2022/04/16 01:27:53;;;;;;;64.10;5.93;;;;;;;10.86;100.00;98902.25;5000916;28;20021;-58
2022/04/16 01:30:20;;;;;;;58.92;5.53;;;;;;;10.59;100.00;98901.28;4999745;28;20026;-58
2022/04/16 01:32:48;;;;;;;69.25;5.95;;;;;;;10.96;100.00;98906.31;5000999;28;20030;-59
2022/04/16 01:35:15;;;;;;;61.75;5.55;;;;;;;10.44;100.00;98901.66;5001059;28;20026;-58
2022/04/16 01:37:40;;;;;;;55.08;5.20;;;;;;;10.82;100.00;98903.25;5000248;28;20054;-59
2022/04/16 01:40:07;;;;;;;53.08;5.03;;;;;;;10.97;100.00;98904.56;5003263;28;20694;-59
2022/04/16 01:42:33;;;;;;;61.53;5.63;;;;;;;11.07;100.00;98907.78;5003512;28;20026;-58
2022/04/16 01:45:02;;;;;;;74.07;6.18;;;;;;;11.22;100.00;98907.34;5003739;28;20971;-59
2022/04/16 01:47:28;;;;;;;56.95;5.45;;;;;;;10.21;100.00;98903.94;5003372;28;20026;-58
2022/04/16 01:49:55;;;;;;;70.20;6.22;;;;;;;10.97;100.00;98902.84;5004357;28;20060;-58
2022/04/16 01:52:21;;;;;;;48.28;4.97;;;;;;;11.54;100.00;98908.13;5004132;28;20034;-57
2022/04/16 01:54:47;;;;;;;74.45;5.88;;;;;;;11.86;100.00;98909.75;5004101;28;20065;-57
2022/04/16 01:57:12;;;;;;;52.65;4.97;;;;;;;11.47;100.00;98919.66;5004469;28;20116;-59
2022/04/16 01:59:38;;;;;;;52.65;4.93;;;;;;;11.84;100.00;98913.34;5006742;28;20041;-58
2022/04/16 02:02:03;;;;;;;72.00;6.18;;;;;;;11.39;100.00;98909.44;5004632;28;20073;-58
2022/04/16 02:04:29;;;;;;;50.00;5.47;;;;;;;11.52;100.00;98910.81;5007997;28;20026;-58
2022/04/16 02:06:54;;;;;;;51.47;4.97;;;;;;;12.61;100.00;98902.94;5005750;28;20151;-58
2022/04/16 02:09:20;;;;;;;68.47;6.00;;;;;;;11.73;100.00;98903.22;5004283;28;20032;-58
2022/04/16 02:11:45;;;;;;;76.15;6.53;;;;;;;11.63;100.00;98892.16;5001341;28;20508;-59
2022/04/16 02:14:10;;;;;;;58.15;5.68;;;;;;;11.26;100.00;98903.72;5004011;28;20116;-58
2022/04/16 02:16:36;;;;;;;59.08;5.03;;;;;;;12.20;100.00;98903.44;5002738;28;20030;-55
2022/04/16 02:19:01;;;;;;;54.97;4.95;;;;;;;13.30;100.00;98893.47;5001773;28;20021;-57
2022/04/16 02:21:28;;;;;;;53.85;5.43;;;;;;;12.26;100.00;98897.16;5008022;28;20927;-55
2022/04/16 02:23:54;;;;;;;47.78;4.47;;;;;;;12.67;100.00;98902.75;5006893;28;20026;-57
2022/04/16 02:26:22;;;;;;;60.13;5.18;;;;;;;12.83;100.00;98898.69;5005154;28;20100;-57
2022/04/16 02:28:50;;;;;;;61.45;5.05;;;;;;;13.19;100.00;98905.25;5006878;28;20030;-56
2022/04/16 02:31:16;;;;;;;56.42;5.20;;;;;;;12.33;100.00;98914.38;5001921;28;20062;-56
2022/04/16 02:33:41;;;;;;;56.13;6.13;;;;;;;11.10;100.00;98907.69;5005655;28;20036;-56
2022/04/16 02:36:07;;;;;;;60.97;5.38;;;;;;;12.11;100.00;98915.09;5003753;28;20037;-55
2022/04/16 02:38:33;;;;;;;60.03;5.30;;;;;;;12.53;100.00;98906.72;5001118;28;20057;-55
2022/04/16 02:40:59;;;;;;;44.15;5.03;;;;;;;11.81;100.00;98905.59;5000401;28;20037;-56
2022/04/16 02:43:24;;;;;;;48.10;5.20;;;;;;;12.20;100.00;98907.84;5002618;28;20030;-58
2022/04/16 02:48:33;;;;;;;65.35;6.55;;;;;;;11.94;100.00;98896.47;5005685;28;20095;-55
2022/04/16 02:50:59;;;;;;;63.10;6.18;;;;;;;11.42;100.00;98903.28;5004905;28;20034;-56
2022/04/16 02:53:26;;;;;;;55.45;6.75;;;;;;;11.51;100.00;98908.25;5005626;28;20030;-55
2022/04/16 02:55:55;;;;;;;68.65;6.22;;;;;;;11.42;100.00;98905.91;5002043;28;20034;-56
2022/04/16 02:58:20;;;;;;;48.85;6.05;;;;;;;11.37;100.00;98906.88;5005727;28;20442;-56
2022/04/16 03:00:46;;;;;;;65.22;6.00;;;;;;;11.57;100.00;98905.44;5003839;28;20045;-57
2022/04/16 03:03:11;;;;;;;62.00;6.70;;;;;;;11.13;100.00;98907.59;5003797;28;20063;-54
2022/04/16 03:05:37;;;;;;;60.85;6.90;;;;;;;10.51;100.00;98909.31;5003636;28;20058;-56
2022/04/16 03:08:05;;;;;;;52.72;6.68;;;;;;;10.88;100.00;98910.03;5006131;28;20435;-55
2022/04/16 03:10:31;;;;;;;61.25;6.72;;;;;;;10.08;100.00;98907.75;5004265;28;20042;-55
2022/04/16 03:12:56;;;;;;;68.65;7.15;;;;;;;10.53;100.00;98907.50;5002127;28;20044;-56
2022/04/16 03:18:08;;;;;;;65.80;7.07;;;;;;;10.32;100.00;98914.13;5001902;28;20180;-57
2022/04/16 03:20:34;;;;;;;58.60;6.00;;;;;;;10.47;100.00;98920.69;5002422;28;20034;-58
2022/04/16 03:23:00;;;;;;;69.30;6.43;;;;;;;10.45;100.00;98913.81;5004926;28;20022;-58
2022/04/16 03:25:27;;;;;;;60.60;6.43;;;;;;;10.26;100.00;98918.63;5002528;28;20041;-59
2022/04/16 03:27:53;;;;;;;59.50;6.47;;;;;;;10.22;100.00;98917.84;5001277;28;20022;-59
2022/04/16 03:30:19;;;;;;;51.60;6.07;;;;;;;10.22;100.00;98913.47;5003955;28;20098;-57
2022/04/16 03:32:47;;;;;;;62.55;6.07;;;;;;;10.19;100.00;98918.75;5004035;28;20032;-57
2022/04/16 03:35:13;;;;;;;65.65;7.07;;;;;;;10.25;100.00;98916.91;5002027;28;20116;-58
2022/04/16 03:37:38;;;;;;;70.40;7.10;;;;;;;9.96;100.00;98926.25;5000611;28;20029;-58
2022/04/16 03:40:05;;;;;;;73.32;7.35;;;;;;;9.36;100.00;98925.88;5002154;28;20027;-57
2022/04/16 03:42:31;;;;;;;52.22;6.28;;;;;;;9.77;100.00;98921.47;5002419;28;20129;-57
2022/04/16 03:44:58;;;;;;;95.40;8.18;;;;;;;9.58;100.00;98926.25;5003768;28;20535;-57
2022/04/16 03:47:23;;;;;;;72.50;7.13;;;;;;;9.75;100.00;98927.63;5002959;28;20527;-57
2022/04/16 03:49:48;;;;;;;68.70;7.47;;;;;;;9.40;100.00;98931.88;5003139;28;20076;-58
2022/04/16 03:52:13;;;;;;;70.88;6.97;;;;;;;9.49;100.00;98925.63;5002432;28;20431;-58
2022/04/16 04:00:08;;;;;;;71.07;7.15;;;;;;;9.40;100.00;98934.47;5000578;28;20040;-57
2022/04/16 04:02:36;;;;;;;69.93;7.63;;;;;;;9.56;100.00;98942.84;5003491;28;20026;-58
2022/04/16 04:05:02;;;;;;;66.47;7.22;;;;;;;9.20;100.00;98935.75;5005050;28;20022;-56
2022/04/16 04:07:28;;;;;;;75.03;7.82;;;;;;;9.54;100.00;98944.59;5003905;28;20200;-59
2022/04/16 04:09:53;;;;;;;69.38;7.43;;;;;;;8.58;100.00;98951.66;5003315;28;20117;-58
2022/04/16 04:12:19;;;;;;;77.00;8.00;;;;;;;8.78;100.00;98956.50;5000117;28;20642;-57
2022/04/16 04:14:46;;;;;;;76.65;7.45;;;;;;;9.32;100.00;98949.38;5001974;28;20424;-58
2022/04/16 04:17:13;;;;;;;60.38;6.40;;;;;;;9.63;100.00;98955.69;5002558;28;20502;-58
2022/04/16 04:19:41;;;;;;;74.38;7.90;;;;;;;9.00;100.00;98959.56;5002654;28;20407;-56
2022/04/16 04:22:10;;;;;;;63.53;7.07;;;;;;;9.49;100.00;98959.47;5003032;28;20045;-58
2022/04/16 04:24:37;;;;;;;74.60;8.15;;;;;;;9.01;100.00;98961.28;5002146;28;20546;-56
2022/04/16 04:27:04;;;;;;;67.72;7.90;;;;;;;9.15;100.00;98967.97;5000469;28;20225;-58
2022/04/16 04:29:29;;;;;;;68.88;8.05;;;;;;;9.35;100.00;98973.63;5004880;28;20096;-58
2022/04/16 04:31:55;;;;;;;71.60;8.38;;;;;;;9.02;100.00;98978.63;5002903;28;20041;-58
2022/04/16 04:34:21;;;;;;;71.53;8.10;;;;;;;8.81;100.00;98990.28;5002574;28;20047;-58
2022/04/16 04:36:46;;;;;;;82.50;8.52;;;;;;;9.03;100.00;98990.75;5002061;28;20042;-58
2022/04/16 04:39:12;;;;;;;70.93;7.40;;;;;;;9.03;100.00;98985.53;4999475;28;20037;-58
2022/04/16 04:41:38;;;;;;;65.65;7.50;;;;;;;9.00;100.00;98985.59;4999594;28;20770;-58
2022/04/16 04:44:04;;;;;;;60.95;7.72;;;;;;;9.11;100.00;98987.97;5002575;28;20034;-57
2022/04/16 04:46:29;;;;;;;60.72;7.63;;;;;;;8.90;100.00;98991.88;5002216;28;20353;-59
2022/04/16 04:48:55;;;;;;;68.55;7.80;;;;;;;9.24;100.00;98999.00;5001188;28;20585;-58
2022/04/16 04:51:20;;;;;;;71.18;8.40;;;;;;;9.09;100.00;99000.16;5002359;28;20136;-58
2022/04/16 04:53:46;;;;;;;53.95;6.25;;;;;;;9.94;100.00;98996.66;5001942;28;20100;-58
2022/04/16 04:56:11;;;;;;;63.63;8.32;;;;;;;9.35;100.00;98999.66;5001037;28;20037;-58
2022/04/16 04:58:37;;;;;;;53.20;6.05;;;;;;;10.05;100.00;99004.25;5000026;28;20088;-58
2022/04/16 05:01:03;;;;;;;67.65;8.25;;;;;;;9.23;100.00;99012.94;5002074;28;20053;-58
2022/04/16 05:03:29;;;;;;;55.63;6.50;;;;;;;10.06;100.00;99010.34;5000322;28;20025;-56
2022/04/16 05:05:54;;;;;;;73.95;7.82;;;;;;;9.04;100.00;99022.81;5001787;28;20040;-56
2022/04/16 05:08:19;;;;;;;66.70;8.48;;;;;;;8.75;100.00;99021.63;5002295;28;20125;-57
2022/04/16 05:10:45;;;;;;;71.95;8.43;;;;;;;8.97;100.00;99019.50;5001260;28;20050;-56
2022/04/16 05:13:10;;;;;;;57.70;7.63;;;;;;;8.74;100.00;99024.25;5002064;28;20028;-57
2022/04/16 05:15:35;;;;;;;70.93;6.90;;;;;;;9.36;100.00;99029.19;5001950;28;20111;-58
2022/04/16 05:18:00;;;;;;;63.45;7.65;;;;;;;9.64;100.00;99029.47;5002232;28;20771;-58
2022/04/16 05:20:26;;;;;;;56.05;7.18;;;;;;;9.48;100.00;99033.28;5006786;28;20067;-57
2022/04/16 05:22:51;;;;;;;64.85;7.85;;;;;;;9.16;100.00;99037.38;5010571;28;20121;-58
2022/04/16 05:25:16;;;;;;;56.17;7.18;;;;;;;9.37;100.00;99036.94;5005728;28;20748;-57
2022/04/16 05:27:42;;;;;;;67.05;7.05;;;;;;;9.58;100.00;99040.03;5004779;28;20037;-58
2022/04/16 05:30:13;;;;;;;57.75;7.40;;;;;;;8.95;100.00;99043.81;5006535;28;20026;-59
2022/04/16 05:32:42;;;;;;;56.58;6.85;;;;;;;9.10;100.00;99045.28;5008831;28;20128;-58
2022/04/16 05:35:10;;;;;;;67.45;7.00;;;;;;;9.00;100.00;99045.44;5008042;28;20033;-57
2022/04/16 05:37:36;;;;;;;66.70;6.78;;;;;;;9.14;100.00;99054.75;5008566;28;20502;-57
2022/04/16 05:40:06;;;;;;;69.82;7.00;;;;;;;8.92;100.00;99055.13;5007854;28;20029;-57
2022/04/16 05:42:31;;;;;;;67.65;6.97;;;;;;;8.81;100.00;99051.88;5009253;28;20069;-58
2022/04/16 05:45:01;;;;;;;74.40;7.22;;;;;;;9.22;100.00;99052.88;5005648;28;20030;-56
2022/04/16 05:47:27;;;;;;;54.70;6.30;;;;;;;9.22;100.00;99058.06;5006607;28;20049;-56
2022/04/16 05:49:53;;;;;;;61.65;6.68;;;;;;;9.18;100.00;99062.47;5008527;28;20029;-55
2022/04/16 05:52:18;;;;;;;72.97;7.47;;;;;;;9.51;100.00;99064.47;5008218;28;20044;-56
2022/04/16 05:54:44;;;;;;;93.28;8.15;;;;;;;9.36;100.00;99073.44;5007880;28;20026;-56
2022/04/16 05:57:10;;;;;;;56.75;6.15;;;;;;;9.55;100.00;99071.34;5009654;28;20067;-56
2022/04/16 05:59:35;;;;;;;68.65;7.53;;;;;;;9.32;100.00;99080.47;5008227;28;20117;-58
2022/04/16 06:02:01;;;;;;;58.75;5.97;;;;;;;9.78;100.00;99079.56;5009022;28;20546;-56
2022/04/16 06:04:26;;;;;;;66.57;7.00;;;;;;;9.27;100.00;99092.69;5008257;28;20040;-56
2022/04/16 06:06:51;;;;;;;72.65;7.30;;;;;;;9.68;100.00;99088.44;5004937;28;20034;-59
2022/04/16 06:09:17;;;;;;;63.38;7.05;;;;;;;9.65;100.00;99085.91;5007686;28;20620;-55
2022/04/16 06:11:42;;;;;;;71.05;7.78;;;;;;;9.40;100.00;99091.56;5005617;28;20041;-56
2022/04/16 06:14:08;;;;;;;68.43;7.45;;;;;;;9.49;100.00;99100.13;5009973;28;20813;-56
2022/04/16 06:16:33;;;;;;;68.30;7.50;;;;;;;9.58;100.00;99099.94;5006697;28;20088;-58
2022/04/16 06:18:59;;;;;;;56.45;7.53;;;;;;;8.57;100.00;99102.53;5007256;28;20187;-57
2022/04/16 06:21:24;;;;;;;74.90;6.82;;;;;;;9.47;100.00;99101.91;5005720;28;20496;-57
2022/04/16 06:23:51;;;;;;;57.22;6.60;;;;;;;9.28;100.00;99099.59;5009204;28;20025;-58
2022/04/16 06:26:17;;;;;;;75.25;8.38;;;;;;;9.64;100.00;99112.84;5005624;28;20456;-57
2022/04/16 06:28:42;;;;;;;61.38;6.93;;;;;;;10.63;100.00;99105.56;5007830;28;20125;-57
2022/04/16 06:31:07;;;;;;;65.18;6.80;;;;;;;9.84;100.00;99105.47;5004277;28;20065;-57
2022/04/16 06:33:32;;;;;;;46.42;6.80;;;;;;;9.40;100.00;99119.38;5005340;28;20034;-58
2022/04/16 06:35:58;;;;;;;78.80;8.60;;;;;;;9.00;100.00;99115.69;5000522;28;20103;-56
2022/04/16 06:38:23;;;;;;;66.95;7.28;;;;;;;9.58;100.00;99123.38;5005654;28;20060;-58
2022/04/16 06:40:48;;;;;;;88.43;10.02;;;;;;;8.93;100.00;99116.69;5005355;28;20065;-57
2022/04/16 06:43:14;;;;;;;68.65;9.35;;;;;;;8.74;100.00;99120.50;5005038;28;20104;-57
2022/04/16 06:45:39;;;;;;;62.22;8.93;;;;;;;9.37;100.00;99125.47;5004056;28;20037;-56
2022/04/16 06:48:05;;;;;;;74.75;9.90;;;;;;;9.05;100.00;99124.28;5006899;28;20037;-57
2022/04/16 06:50:30;;;;;;;68.07;8.70;;;;;;;9.20;100.00;99122.31;5002228;28;20510;-57
2022/04/16 06:52:56;;;;;;;66.65;8.13;;;;;;;9.90;100.00;99116.66;5002802;28;20091;-56
2022/04/16 06:55:21;;;;;;;59.90;9.52;;;;;;;9.81;100.00;99118.59;4999561;28;20100;-59
2022/04/16 06:57:46;;;;;;;72.53;9.77;;;;;;;9.10;100.00;99121.63;5004153;28;20621;-57
2022/04/16 07:00:12;;;;;;;73.78;9.95;;;;;;;9.26;100.00;99124.81;5002245;28;20812;-56
2022/04/16 07:02:39;;;;;;;72.07;8.70;;;;;;;8.55;100.00;99128.56;5006961;28;20048;-56
2022/04/16 07:05:05;;;;;;;90.05;9.10;;;;;;;9.29;100.00;99122.16;5002921;28;20152;-56
2022/04/16 07:07:30;;;;;;;67.82;9.20;;;;;;;8.56;100.00;99114.66;5003323;28;20124;-56
2022/04/16 07:09:56;;;;;;;82.80;9.75;;;;;;;9.30;100.00;99123.91;5004378;28;20175;-55
2022/04/16 07:12:21;;;;;;;79.70;9.88;;;;;;;9.24;100.00;99121.38;5005025;28;20038;-58
2022/04/16 07:14:46;;;;;;;99.47;10.93;;;;;;;8.40;100.00;99129.63;5005743;28;20072;-58
2022/04/16 07:17:12;;;;;;;76.90;9.02;;;;;;;8.08;100.00;99127.44;5005389;28;20085;-57
2022/04/16 07:19:38;;;;;;;58.05;7.05;;;;;;;9.15;100.00;99134.56;5003686;28;20068;-57
2022/04/16 07:22:04;;;;;;;70.47;8.68;;;;;;;9.23;100.00;99130.94;5001805;28;20121;-58
2022/04/16 07:24:30;;;;;;;86.70;9.15;;;;;;;8.81;100.00;99140.31;5001797;28;20033;-57
2022/04/16 07:26:55;;;;;;;78.55;9.35;;;;;;;8.65;100.00;99140.53;5004605;28;20067;-58
2022/04/16 07:29:22;;;;;;;75.85;7.65;;;;;;;9.37;100.00;99140.25;5003544;28;20036;-59
2022/04/16 07:31:47;;;;;;;70.47;7.80;;;;;;;8.70;100.00;99145.69;5003738;28;20061;-56
2022/04/16 07:34:13;;;;;;;73.28;7.43;;;;;;;8.65;100.00;99143.13;5006201;28;20033;-58
2022/04/16 07:36:38;;;;;;;71.10;7.10;;;;;;;8.24;100.00;99154.97;5005805;28;20049;-56
2022/04/16 07:39:04;;;;;;;72.15;7.75;;;;;;;8.63;100.00;99152.72;5006805;28;20029;-56
2022/04/16 07:41:29;;;;;;;77.97;7.97;;;;;;;8.34;100.00;99149.63;5000433;28;20137;-56
2022/04/16 07:43:55;;;;;;;88.00;8.15;;;;;;;8.53;100.00;99148.53;4996268;28;20091;-59
2022/04/16 07:46:22;;;;;;;61.70;6.88;;;;;;;8.70;100.00;99144.84;4999539;28;20334;-57
2022/04/16 07:48:48;;;;;;;72.75;7.45;;;;;;;9.76;100.00;99143.00;5001903;28;20029;-57
2022/04/16 07:51:13;;;;;;;58.45;6.88;;;;;;;9.86;100.00;99146.28;5003208;28;20145;-57
2022/04/16 07:53:39;;;;;;;83.75;8.25;;;;;;;9.58;100.00;99146.81;5005148;28;20033;-56
2022/04/16 07:56:04;;;;;;;58.08;7.00;;;;;;;9.90;100.00;99151.41;5005503;28;20053;-55
2022/04/16 07:58:29;;;;;;;54.42;6.78;;;;;;;9.67;100.00;99154.47;5004761;28;20865;-57
2022/04/16 08:00:55;;;;;;;70.05;7.50;;;;;;;9.12;100.00;99160.66;4999290;28;20112;-58
2022/04/16 08:03:20;;;;;;;98.15;8.82;;;;;;;9.24;100.00;99165.63;4996183;28;20109;-58
2022/04/16 08:05:45;;;;;;;92.43;8.40;;;;;;;8.96;100.00;99163.50;4999365;28;20558;-57
2022/04/16 08:08:11;;;;;;;60.65;6.93;;;;;;;9.43;100.00;99171.41;5003550;28;20028;-57
2022/04/16 08:10:37;;;;;;;63.28;7.10;;;;;;;9.27;100.00;99182.06;5001870;28;20197;-56
2022/04/16 08:13:04;;;;;;;70.88;7.45;;;;;;;9.40;100.00;99182.72;5002713;28;20038;-57
2022/04/16 08:15:29;;;;;;;66.82;6.70;;;;;;;9.58;100.00;99183.28;4999678;28;20041;-57
2022/04/16 08:17:55;;;;;;;72.47;7.22;;;;;;;9.69;100.00;99181.34;5003319;28;20052;-58
2022/04/16 08:20:20;;;;;;;78.28;7.13;;;;;;;12.48;100.00;99186.03;5000354;28;20036;-57
2022/04/16 08:22:46;;;;;;;75.88;7.20;;;;;;;14.70;75.64;99182.88;5001132;28;20045;-58
2022/04/16 08:27:51;;;;;;;62.75;7.22;;;;;;;16.02;64.73;99180.03;5002555;28;20048;-58
2022/04/16 08:30:17;;;;;;;57.95;6.55;;;;;;;16.01;64.87;99188.88;5002877;28;20842;-56
2022/04/16 08:32:44;;;;;;;66.57;7.03;;;;;;;16.14;61.52;99187.38;4998342;28;20042;-57
2022/04/16 08:35:12;;;;;;;57.88;6.38;;;;;;;18.09;55.89;99186.78;5001454;28;20064;-57
2022/04/16 08:37:38;;;;;;;49.33;6.47;;;;;;;17.57;52.04;99190.31;5000630;28;20026;-57
2022/04/16 08:40:05;;;;;;;52.38;6.28;;;;;;;14.87;56.58;99185.72;5000298;28;20036;-58
2022/04/16 08:42:33;;;;;;;67.10;6.88;;;;;;;16.26;56.82;99183.34;5000644;28;20093;-60
2022/04/16 08:45:00;;;;;;;53.90;6.57;;;;;;;15.37;59.69;99184.56;5000385;28;20124;-60
2022/04/16 08:47:25;;;;;;;69.45;7.50;;;;;;;15.54;60.02;99175.97;5003016;28;20030;-58
2022/04/16 08:49:50;;;;;;;71.03;7.55;;;;;;;16.69;57.51;99181.38;5000237;28;20029;-58
2022/04/16 08:52:17;;;;;;;66.38;7.80;;;;;;;15.99;53.81;99191.56;4998078;28;20084;-57
2022/04/16 08:54:43;;;;;;;68.65;7.80;;;;;;;16.36;55.45;99189.91;4997353;28;20112;-56
2022/04/16 08:57:08;;;;;;;63.92;7.43;;;;;;;16.36;51.75;99184.63;5001041;28;20042;-58
2022/04/16 08:59:33;;;;;;;60.38;7.05;;;;;;;16.84;52.73;99178.97;4999354;28;20048;-57
2022/04/16 09:01:59;;;;;;;61.67;7.35;;;;;;;17.99;47.40;99189.03;5000588;28;20037;-57
2022/04/16 09:04:30;;;;;;;75.85;7.65;;;;;;;15.37;47.99;99185.41;5000070;28;20037;-58
2022/04/16 09:07:01;;;;;;;64.75;6.80;;;;;;;19.37;41.52;99183.22;4989898;28;20030;-59
2022/04/16 09:09:27;;;;;;;66.05;7.32;;;;;;;17.86;44.32;99183.53;5001321;28;20025;-58
2022/04/16 09:11:53;;;;;;;54.17;6.55;;;;;;;19.65;42.06;99178.94;5001973;28;20065;-57
2022/04/16 09:14:18;;;;;;;62.72;7.25;;;;;;;17.23;43.91;99185.84;5002055;28;20093;-56
2022/04/16 09:16:44;;;;;;;57.72;7.05;;;;;;;16.68;44.52;99187.53;4999650;28;20379;-55
2022/04/16 09:19:16;;;;;;;55.42;6.75;;;;;;;17.98;42.50;99187.34;5003638;28;20659;-58
2022/04/16 09:21:43;;;;;;;60.60;6.70;;;;;;;16.54;44.28;99182.06;5002907;28;20037;-57
2022/04/16 09:24:09;;;;;;;51.83;6.00;;;;;;;15.63;44.71;99179.97;5002123;28;20026;-57
2022/04/16 09:26:36;;;;;;;60.15;6.22;;;;;;;18.16;40.60;99192.56;5000230;28;20526;-58
2022/04/16 09:29:18;;;;;;;65.00;6.40;;;;;;;17.28;40.84;99191.75;4999547;28;20030;-58
2022/04/16 09:31:48;;;;;;;;;;;;;;;19.19;40.40;99185.13;5002205;28;20069;-58
2022/04/16 09:34:18;;;;;;;59.70;6.13;;;;;;;20.70;38.00;99178.72;5001385;28;20851;-59
2022/04/16 09:36:44;;;;;;;76.63;7.30;;;;;;;20.81;36.51;99178.03;4996814;28;20034;-56
2022/04/16 09:39:11;;;;;;;68.60;7.05;;;;;;;20.29;36.62;99173.34;5000667;28;20076;-57
2022/04/16 09:41:41;;;;;;;61.60;6.22;;;;;;;21.41;36.36;99167.94;5002052;28;20184;-60
2022/04/16 09:44:23;;;;;;;53.88;6.25;;;;;;;20.74;36.52;99166.13;5000286;28;20026;-58
2022/04/16 09:46:49;;;;;;;62.72;6.53;;;;;;;20.98;36.66;99164.50;5002025;28;20677;-60
2022/04/16 09:49:16;;;;;;;60.03;6.32;;;;;;;19.14;37.68;99157.25;5002367;28;20484;-58
2022/04/16 09:51:43;;;;;;;56.20;6.13;;;;;;;21.53;35.49;99162.69;5002549;28;20045;-57
2022/04/16 09:54:10;;;;;;;55.80;5.82;;;;;;;22.55;33.12;99162.75;5001148;28;20045;-58
2022/04/16 09:56:37;;;;;;;50.65;5.78;;;;;;;18.76;36.04;99173.47;4999928;28;20034;-56
2022/04/16 09:59:06;;;;;;;54.53;6.25;;;;;;;19.27;35.26;99158.25;5001408;28;20704;-56
2022/04/16 10:01:32;;;;;;;47.00;5.32;;;;;;;20.01;35.46;99164.44;5003681;28;20718;-57
2022/04/16 10:04:02;;;;;;;61.40;6.07;;;;;;;21.17;36.66;99150.91;5003251;28;20037;-57
2022/04/16 10:06:30;;;;;;;54.03;5.68;;;;;;;19.05;35.99;99158.63;5003288;28;20034;-60
2022/04/16 10:09:13;;;;;;;59.13;6.15;;;;;;;19.38;36.30;99158.47;5005861;28;20107;-59
2022/04/16 10:11:42;;;;;;;43.72;4.78;;;;;;;19.50;36.48;99153.38;5006540;28;20572;-58
2022/04/16 10:14:24;;;;;;;49.65;5.80;;;;;;;18.50;39.71;99152.81;5005885;28;20123;-59
2022/04/16 10:17:07;;;;;;;;;;;;;;;20.60;36.21;99144.00;5004749;28;20583;-58
2022/04/16 10:19:40;;;;;;;53.97;5.25;;;;;;;20.01;33.48;99130.88;5004100;28;20462;-59
2022/04/16 10:22:05;;;;;;;57.28;5.70;;;;;;;19.74;33.79;99137.84;5006921;28;20068;-58
2022/04/16 10:24:31;;;;;;;48.80;5.38;;;;;;;20.68;32.55;99138.19;4994062;28;20076;-59
2022/04/16 10:27:04;;;;;;;58.70;5.68;;;;;;;20.26;35.69;99147.91;5002428;28;20069;-58
2022/04/16 10:29:37;;;;;;;56.13;5.57;;;;;;;20.64;33.72;99147.31;5004828;28;20057;-58
2022/04/16 10:32:14;;;;;;;50.28;5.30;;;;;;;18.96;35.89;99146.78;5004057;28;20052;-59
2022/04/16 10:34:40;;;;;;;57.35;5.25;;;;;;;20.42;33.13;99147.78;5003657;28;20025;-59
2022/04/16 10:37:07;;;;;;;53.85;5.22;;;;;;;21.42;31.91;99148.41;5002654;28;20042;-56
2022/04/16 10:39:35;;;;;;;53.72;4.85;;;;;;;20.74;33.74;99136.94;5002155;28;20026;-56
2022/04/16 10:42:04;;;;;;;54.13;4.90;;;;;;;21.98;31.04;99142.84;5001415;28;20148;-57
2022/04/16 10:44:43;;;;;;;63.47;5.55;;;;;;;19.52;32.94;99147.06;5003996;28;20060;-56
2022/04/16 10:47:12;;;;;;;46.83;4.80;;;;;;;21.70;30.63;99148.25;5004763;28;20041;-59
2022/04/16 10:49:41;;;;;;;53.30;5.55;;;;;;;18.51;32.89;99143.13;5003334;28;20030;-57
2022/04/16 10:52:18;;;;;;;50.47;5.03;;;;;;;20.16;32.26;99147.63;5003389;28;20044;-56
2022/04/16 10:54:43;;;;;;;64.88;5.50;;;;;;;17.73;31.94;99150.78;5003676;28;20108;-59
2022/04/16 10:57:11;;;;;;;53.72;4.90;;;;;;;19.30;30.83;99157.19;5003570;28;20587;-57
2022/04/16 10:59:41;;;;;;;57.05;5.03;;;;;;;20.06;30.59;99146.50;5003278;28;20113;-58
2022/04/16 11:02:26;;;;;;;63.45;5.55;;;;;;;20.03;32.28;99146.66;5000967;28;20480;-57
2022/04/16 11:04:54;;;;;;;71.78;6.10;;;;;;;18.30;31.82;99148.63;5003923;28;20527;-58
2022/04/16 11:07:23;;;;;;;45.08;4.35;;;;;;;20.17;30.41;99138.72;5002699;28;20741;-57
2022/04/16 11:09:51;;;;;;;58.83;5.13;;;;;;;19.11;32.51;99152.13;5003904;28;20029;-59
2022/04/16 11:12:19;;;;;;;49.95;4.65;;;;;;;19.67;31.79;99139.13;5003263;28;20065;-58
2022/04/16 11:14:46;;;;;;;71.85;5.97;;;;;;;18.23;32.85;99149.94;5005754;28;20030;-59
2022/04/16 11:17:13;;;;;;;47.70;4.80;;;;;;;19.03;31.72;99148.13;5000550;28;20694;-59
2022/04/16 11:19:38;;;;;;;57.47;5.00;;;;;;;20.74;31.76;99140.44;5004331;28;20049;-58
2022/04/16 11:22:04;;;;;;;48.63;4.38;;;;;;;19.96;31.60;99140.03;5001614;28;20038;-58
2022/04/16 11:24:30;;;;;;;49.95;4.53;;;;;;;19.16;32.35;99144.78;5000272;28;20018;-59
2022/04/16 11:35:13;;;;;;;51.22;4.60;;;;;;;17.86;34.22;99156.31;5001397;28;20052;-58
2022/04/16 11:37:38;;;;;;;54.42;4.63;;;;;;;17.09;33.67;99152.25;5002466;28;20404;-58
2022/04/16 11:40:05;;;;;;;51.90;4.47;;;;;;;17.25;33.93;99147.09;5003285;28;20447;-57
2022/04/16 11:42:32;;;;;;;49.95;4.57;;;;;;;16.46;36.77;99142.91;5003650;28;20069;-56